createdAt,value
2019-01-30T00:00:04.236Z,89.22
2019-01-30T00:02:34.514Z,88.82
2019-01-30T00:05:04.931Z,89.01
2019-01-30T00:07:34.937Z,87.26
2019-01-30T00:10:06.758Z,87.58
2019-01-30T00:12:37.242Z,87.76
2019-01-30T00:15:08.198Z,86.73
2019-01-30T00:17:38.584Z,87.47
2019-01-30T00:20:09.082Z,87.16
2019-01-30T00:22:39.321Z,86.96
2019-01-30T00:25:09.493Z,86.91
2019-01-30T00:27:39.405Z,87.09
2019-01-30T00:30:11.701Z,86.99
2019-01-30T00:32:41.600Z,86.73
2019-01-30T00:35:11.631Z,86.83
2019-01-30T00:37:41.954Z,87.47
2019-01-30T00:40:12.296Z,87.32
2019-01-30T00:42:43.100Z,87.58
2019-01-30T00:45:14.273Z,88.15
2019-01-30T00:47:44.342Z,87.37
2019-01-30T00:50:14.946Z,88.27
2019-01-30T00:52:48.879Z,88.59
2019-01-30T00:55:19.053Z,88.78
2019-01-30T00:57:49.026Z,88.79
2019-01-30T01:00:20.609Z,89.65
2019-01-30T01:02:51.331Z,89.57
2019-01-30T01:05:23.776Z,89.83
2019-01-30T01:07:54.157Z,89.77
2019-01-30T01:10:24.352Z,89.64
2019-01-30T01:12:54.651Z,89.15
2019-01-30T01:15:24.880Z,89.38
2019-01-30T01:17:55.212Z,89.80
2019-01-30T01:20:25.493Z,89.04
2019-01-30T01:22:55.457Z,88.96
2019-01-30T01:25:25.845Z,88.41
2019-01-30T01:27:56.001Z,88.20
2019-01-30T01:30:27.695Z,88.26
2019-01-30T01:32:57.913Z,87.38
2019-01-30T01:35:27.994Z,87.76
2019-01-30T01:37:58.111Z,87.88
2019-01-30T01:40:28.340Z,87.91
2019-01-30T01:42:58.225Z,88.32
2019-01-30T01:45:28.401Z,88.26
2019-01-30T01:47:58.304Z,88.97
2019-01-30T01:50:28.314Z,89.69
2019-01-30T01:52:58.967Z,89.80
2019-01-30T01:55:29.441Z,90.56
2019-01-30T01:57:59.781Z,90.44
2019-01-30T02:00:35.654Z,90.81
2019-01-30T02:03:01.854Z,89.62
2019-01-30T02:05:32.076Z,89.18
2019-01-30T02:08:01.995Z,88.84
2019-01-30T02:10:31.996Z,87.96
2019-01-30T02:13:01.984Z,87.50
2019-01-30T02:15:31.942Z,87.45
2019-01-30T02:18:02.104Z,86.55
2019-01-30T02:20:33.745Z,86.51
2019-01-30T02:23:03.843Z,86.78
2019-01-30T02:25:34.041Z,86.78
2019-01-30T02:28:04.270Z,86.77
2019-01-30T02:30:34.429Z,86.81
2019-01-30T02:33:04.587Z,86.73
2019-01-30T02:35:34.832Z,86.77
2019-01-30T02:38:05.383Z,86.80
2019-01-30T02:40:35.611Z,86.84
2019-01-30T02:43:05.967Z,86.48
2019-01-30T02:45:36.195Z,86.13
2019-01-30T02:48:06.277Z,85.58
2019-01-30T02:50:37.109Z,85.68
2019-01-30T02:53:07.746Z,85.50
2019-01-30T02:55:37.750Z,84.79
2019-01-30T02:58:07.763Z,85.10
2019-01-30T03:00:38.286Z,84.25
2019-01-30T03:03:08.556Z,84.82
2019-01-30T03:05:38.458Z,84.42
2019-01-30T03:08:08.439Z,84.59
2019-01-30T03:10:38.339Z,84.07
2019-01-30T03:13:08.474Z,84.01
2019-01-30T03:15:39.899Z,84.00
2019-01-30T03:18:10.087Z,83.84
2019-01-30T03:20:39.990Z,83.73
2019-01-30T03:23:10.081Z,83.70
2019-01-30T03:25:40.132Z,83.77
2019-01-30T03:28:10.279Z,83.98
2019-01-30T03:30:41.993Z,83.83
2019-01-30T03:33:11.889Z,83.56
2019-01-30T03:35:42.128Z,83.99
2019-01-30T03:38:12.031Z,84.46
2019-01-30T03:40:42.085Z,83.35
2019-01-30T03:43:12.217Z,82.71
2019-01-30T03:45:42.435Z,82.60
2019-01-30T03:48:12.584Z,82.11
2019-01-30T03:50:42.498Z,82.53
2019-01-30T03:53:12.427Z,83.37
2019-01-30T03:55:43.009Z,84.30
2019-01-30T03:58:13.256Z,84.96
2019-01-30T04:00:43.358Z,84.66
2019-01-30T04:03:13.947Z,84.80
2019-01-30T04:05:43.857Z,84.67
2019-01-30T04:08:13.870Z,85.43
2019-01-30T04:10:44.005Z,85.41
2019-01-30T04:13:14.209Z,84.30
2019-01-30T04:15:47.165Z,83.90
2019-01-30T04:18:17.336Z,83.70
2019-01-30T04:20:47.496Z,82.93
2019-01-30T04:23:17.435Z,83.00
2019-01-30T04:25:47.452Z,82.34
2019-01-30T04:28:19.191Z,81.39
2019-01-30T04:30:49.440Z,81.74
2019-01-30T04:33:19.692Z,81.32
2019-01-30T04:35:49.876Z,81.10
2019-01-30T04:38:20.022Z,80.77
2019-01-30T04:40:50.025Z,81.13
2019-01-30T04:43:19.930Z,80.90
2019-01-30T04:45:50.417Z,80.56
2019-01-30T04:48:20.351Z,80.54
2019-01-30T04:54:23.057Z,80.43
2019-01-30T05:04:24.213Z,79.01
2019-01-30T05:06:54.249Z,78.18
2019-01-30T05:09:24.454Z,78.95
2019-01-30T05:11:54.368Z,78.89
2019-01-30T05:14:24.301Z,79.81
2019-01-30T05:16:54.997Z,77.83
2019-01-30T05:19:25.031Z,79.00
2019-01-30T05:21:54.959Z,77.86
2019-01-30T05:24:25.116Z,77.57
2019-01-30T05:26:55.696Z,76.25
2019-01-30T05:29:26.216Z,77.01
2019-01-30T05:32:01.356Z,77.15
2019-01-30T05:34:28.686Z,77.35
2019-01-30T05:36:58.860Z,77.59
2019-01-30T05:39:29.018Z,77.17
2019-01-30T05:41:59.513Z,77.42
2019-01-30T05:44:29.714Z,77.49
2019-01-30T05:46:59.684Z,77.14
2019-01-30T05:49:29.657Z,77.24
2019-01-30T05:51:59.660Z,76.29
2019-01-30T05:54:29.812Z,75.82
2019-01-30T05:57:00.041Z,76.08
2019-01-30T05:59:30.567Z,76.28
2019-01-30T06:02:11.495Z,75.64
2019-01-30T06:04:32.329Z,75.47
2019-01-30T06:07:02.497Z,75.13
2019-01-30T06:09:32.438Z,75.35
2019-01-30T06:12:02.599Z,75.16
2019-01-30T06:14:32.614Z,75.55
2019-01-30T06:17:02.841Z,74.82
2019-01-30T06:22:48.051Z,75.45
2019-01-30T06:25:18.045Z,74.64
2019-01-30T06:27:47.937Z,74.85
2019-01-30T06:30:19.309Z,74.70
2019-01-30T06:32:49.804Z,74.56
2019-01-30T06:35:20.310Z,74.48
2019-01-30T06:37:50.573Z,74.09
2019-01-30T06:40:27.321Z,73.92
2019-01-30T06:42:57.325Z,74.68
2019-01-30T06:45:27.342Z,73.84
2019-01-30T06:47:57.425Z,73.08
2019-01-30T06:50:27.680Z,73.30
2019-01-30T06:52:57.708Z,73.39
2019-01-30T06:55:28.281Z,72.62
2019-01-30T06:57:58.910Z,72.94
2019-01-30T07:00:29.086Z,73.38
2019-01-30T07:02:59.664Z,73.44
2019-01-30T07:05:30.458Z,74.26
2019-01-30T07:08:01.258Z,74.20
2019-01-30T07:10:31.288Z,73.97
2019-01-30T07:13:01.792Z,74.57
2019-01-30T07:15:32.171Z,74.30
2019-01-30T07:18:02.174Z,74.32
2019-01-30T07:20:32.529Z,74.20
2019-01-30T07:23:02.519Z,74.55
2019-01-30T07:25:32.441Z,73.30
2019-01-30T07:28:02.370Z,73.11
2019-01-30T07:30:36.184Z,73.17
2019-01-30T07:33:07.640Z,71.87
2019-01-30T07:35:37.740Z,71.34
2019-01-30T07:38:08.495Z,71.76
2019-01-30T07:40:38.510Z,72.17
2019-01-30T07:43:08.932Z,71.30
2019-01-30T07:45:39.030Z,70.39
2019-01-30T07:48:08.953Z,70.30
2019-01-30T07:50:39.128Z,69.93
2019-01-30T07:53:09.406Z,70.11
2019-01-30T07:55:39.450Z,69.79
2019-01-30T07:58:09.436Z,69.67
2019-01-30T08:00:39.617Z,69.42
2019-01-30T08:03:09.520Z,68.31
2019-01-30T08:05:39.879Z,67.36
2019-01-30T08:08:10.535Z,66.21
2019-01-30T08:10:40.568Z,65.47
2019-01-30T08:13:11.087Z,65.67
2019-01-30T08:15:41.201Z,64.58
2019-01-30T08:18:11.198Z,64.51
2019-01-30T08:20:41.318Z,65.74
2019-01-30T08:23:12.142Z,64.19
2019-01-30T08:25:42.636Z,64.47
2019-01-30T08:28:12.709Z,64.11
2019-01-30T08:30:43.334Z,64.39
2019-01-30T08:33:13.289Z,64.46
2019-01-30T08:35:43.262Z,64.37
2019-01-30T08:38:13.261Z,64.73
2019-01-30T08:40:43.321Z,64.85
2019-01-30T08:43:13.857Z,64.69
2019-01-30T08:45:43.847Z,64.67
2019-01-30T08:48:14.456Z,64.82
2019-01-30T08:50:45.008Z,64.48
2019-01-30T08:53:15.191Z,64.33
2019-01-30T08:55:45.298Z,63.47
2019-01-30T08:58:15.715Z,63.08
2019-01-30T09:00:45.688Z,62.99
2019-01-30T09:03:15.880Z,62.12
2019-01-30T09:05:46.771Z,62.62
2019-01-30T09:08:17.049Z,61.75
2019-01-30T09:10:47.033Z,62.82
2019-01-30T09:13:16.967Z,62.38
2019-01-30T09:15:47.457Z,61.94
2019-01-30T09:18:17.373Z,60.49
2019-01-30T09:20:47.537Z,60.61
2019-01-30T09:23:18.045Z,60.15
2019-01-30T09:25:47.989Z,60.77
2019-01-30T09:28:18.443Z,61.17
2019-01-30T09:30:49.378Z,59.71
2019-01-30T09:33:25.846Z,59.85
2019-01-30T09:35:52.854Z,60.38
2019-01-30T09:38:22.888Z,60.18
2019-01-30T09:40:54.126Z,60.79
2019-01-30T09:47:09.634Z,60.68
2019-01-30T09:49:39.632Z,60.30
2019-01-30T09:59:05.208Z,57.09
2019-01-30T10:08:54.366Z,56.60
2019-01-30T10:18:15.876Z,55.57
2019-01-30T10:27:54.688Z,56.20
2019-01-30T10:30:45.374Z,55.93
2019-01-30T10:33:15.505Z,56.56
2019-01-30T10:35:45.569Z,56.19
2019-01-30T10:38:16.173Z,55.42
2019-01-30T10:40:46.223Z,56.15
2019-01-30T10:54:45.063Z,57.04
2019-01-30T10:57:17.981Z,55.11
2019-01-30T11:06:40.862Z,56.47
2019-01-30T11:09:12.346Z,56.18
2019-01-30T11:11:42.367Z,54.66
2019-01-30T11:14:12.629Z,53.91
2019-01-30T11:16:43.077Z,53.21
2019-01-30T11:19:13.086Z,55.12
2019-01-30T11:21:43.888Z,56.23
2019-01-30T11:24:14.128Z,57.91
2019-01-30T11:26:44.054Z,57.79
2019-01-30T11:29:14.295Z,57.50
2019-01-30T11:31:44.329Z,56.82
2019-01-30T11:34:15.231Z,55.85
2019-01-30T11:36:45.995Z,54.36
2019-01-30T11:39:15.920Z,54.34
2019-01-30T11:41:46.472Z,53.99
2019-01-30T11:44:16.779Z,54.61
2019-01-30T11:46:46.970Z,55.38
2019-01-30T11:49:17.179Z,55.93
2019-01-30T11:51:47.701Z,55.49
2019-01-30T11:54:17.650Z,56.76
2019-01-30T11:56:47.981Z,57.18
2019-01-30T11:59:18.429Z,57.89
2019-01-30T12:01:48.399Z,58.22
2019-01-30T12:04:18.462Z,59.18
2019-01-30T12:06:48.472Z,59.63
2019-01-30T12:09:19.020Z,59.42
2019-01-30T12:11:49.447Z,58.94
2019-01-30T12:14:20.066Z,59.24
2019-01-30T12:16:50.054Z,59.28
2019-01-30T12:19:20.292Z,60.64
2019-01-30T12:21:50.426Z,59.94
2019-01-30T12:24:20.633Z,61.07
2019-01-30T12:26:50.866Z,61.85
2019-01-30T12:29:21.082Z,60.79
2019-01-30T12:31:51.304Z,60.21
2019-01-30T12:34:28.026Z,60.77
2019-01-30T12:36:53.484Z,60.71
2019-01-30T12:39:23.430Z,60.94
2019-01-30T12:41:53.574Z,60.90
2019-01-30T12:44:23.700Z,59.99
2019-01-30T12:46:53.620Z,58.97
2019-01-30T12:49:24.357Z,58.16
2019-01-30T12:51:54.360Z,57.00
2019-01-30T12:54:25.178Z,58.77
2019-01-30T12:56:55.420Z,58.70
2019-01-30T12:59:25.460Z,60.27
2019-01-30T13:01:55.616Z,60.47
2019-01-30T13:04:25.705Z,61.73
2019-01-30T13:06:55.938Z,63.02
2019-01-30T13:09:28.492Z,61.12
2019-01-30T13:11:57.699Z,59.83
2019-01-30T13:14:27.851Z,60.92
2019-01-30T13:16:58.074Z,60.74
2019-01-30T13:19:28.200Z,60.72
2019-01-30T13:21:58.407Z,59.98
2019-01-30T13:24:28.406Z,60.12
2019-01-30T13:26:58.458Z,59.87
2019-01-30T13:29:29.090Z,61.12
2019-01-30T13:32:02.569Z,62.81
2019-01-30T13:34:32.600Z,60.54
2019-01-30T13:37:02.575Z,59.97
2019-01-30T13:39:32.759Z,60.99
2019-01-30T13:42:03.006Z,61.30
2019-01-30T13:44:33.289Z,61.32
2019-01-30T13:47:03.507Z,61.22
2019-01-30T13:49:33.755Z,59.76
2019-01-30T13:52:04.282Z,61.04
2019-01-30T13:54:34.250Z,60.88
2019-01-30T13:57:04.293Z,61.95
2019-01-30T13:59:34.279Z,61.39
2019-01-30T14:02:04.455Z,62.82
2019-01-30T14:04:35.050Z,61.97
2019-01-30T14:07:05.204Z,62.68
2019-01-30T14:09:35.342Z,62.16
2019-01-30T14:12:05.720Z,62.97
2019-01-30T14:14:35.684Z,63.12
2019-01-30T14:20:57.026Z,63.15
2019-01-30T15:35:13.076Z,86.19
2019-01-30T15:45:03.027Z,86.98
2019-01-30T15:47:34.782Z,89.03
2019-01-30T15:50:07.307Z,90.50
2019-01-30T15:52:37.841Z,90.98
2019-01-30T15:55:10.023Z,94.03
2019-01-30T15:57:40.901Z,97.10
2019-01-30T16:00:26.148Z,98.48
2019-01-30T16:02:57.252Z,99.17
2019-01-30T16:05:28.422Z,99.11
2019-01-30T16:07:59.180Z,99.07
2019-01-30T16:10:29.992Z,98.54
2019-01-30T16:13:00.818Z,97.99
2019-01-30T16:15:39.240Z,98.02
2019-01-30T16:18:09.977Z,98.34
2019-01-30T16:20:41.013Z,97.93
2019-01-30T16:23:11.319Z,97.94
2019-01-30T16:25:41.879Z,98.61
2019-01-30T16:28:12.637Z,98.63
2019-01-30T16:30:43.046Z,99.58
2019-01-30T16:33:13.447Z,99.21
2019-01-30T16:35:55.794Z,99.58
2019-01-30T16:38:20.247Z,99.78
2019-01-30T16:40:51.437Z,100.00
2019-01-30T16:43:22.175Z,99.94
2019-01-30T16:45:52.574Z,100.00
2019-01-30T16:48:23.169Z,100.00
2019-01-30T16:50:54.487Z,100.00
2019-01-30T16:53:25.492Z,100.00
2019-01-30T16:55:56.114Z,100.00
2019-01-30T16:58:27.167Z,99.56
2019-01-30T17:00:58.414Z,98.99
2019-01-30T17:03:29.704Z,97.99
2019-01-30T17:06:07.403Z,97.31
2019-01-30T17:08:34.432Z,97.19
2019-01-30T17:11:05.808Z,97.15
2019-01-30T17:13:37.201Z,97.69
2019-01-30T17:16:08.098Z,96.52
2019-01-30T17:18:39.150Z,96.94
2019-01-30T17:21:10.242Z,96.68
2019-01-30T17:23:41.369Z,96.16
2019-01-30T17:26:12.564Z,95.46
2019-01-30T17:28:44.384Z,95.18
2019-01-30T17:31:23.922Z,95.09
2019-01-30T17:33:55.848Z,95.10
2019-01-30T17:36:27.363Z,95.56
2019-01-30T17:38:58.658Z,95.60
2019-01-30T17:41:30.214Z,94.89
2019-01-30T17:44:01.983Z,94.13
2019-01-30T17:46:33.337Z,93.60
2019-01-30T17:49:05.136Z,92.58
2019-01-30T17:51:36.380Z,91.43
2019-01-30T17:54:07.951Z,91.55
2019-01-30T17:56:39.347Z,90.96
2019-01-30T17:59:10.763Z,90.47
2019-01-30T18:01:41.933Z,91.31
2019-01-30T18:04:13.306Z,91.27
2019-01-30T18:06:45.361Z,91.62
2019-01-30T18:09:17.048Z,90.63
2019-01-30T18:11:47.853Z,89.93
2019-01-30T18:14:22.196Z,88.63
2019-01-30T18:16:54.117Z,87.96
2019-01-30T18:19:25.564Z,87.83
2019-01-30T18:21:57.152Z,86.92
2019-01-30T18:24:28.201Z,87.78
2019-01-30T18:26:59.508Z,89.13
2019-01-30T18:29:30.578Z,88.30
2019-01-30T18:32:01.711Z,89.10
2019-01-30T18:34:32.772Z,89.09
2019-01-30T18:37:04.331Z,87.95
2019-01-30T18:39:35.449Z,87.71
2019-01-30T18:42:07.122Z,88.22
2019-01-30T18:44:38.662Z,88.40
2019-01-30T18:47:10.097Z,88.54
2019-01-30T18:49:42.475Z,88.47
2019-01-30T18:52:14.890Z,88.92
2019-01-30T18:54:46.461Z,90.22
2019-01-30T18:57:17.781Z,91.62
2019-01-30T18:59:48.959Z,92.22
2019-01-30T19:02:20.191Z,92.99
2019-01-30T19:04:51.296Z,93.97
2019-01-30T19:07:22.306Z,94.88
2019-01-30T19:09:53.454Z,95.98
2019-01-30T19:12:24.615Z,96.53
2019-01-30T19:14:56.091Z,96.54
2019-01-30T19:17:27.664Z,97.30
2019-01-30T19:19:59.102Z,97.00
2019-01-30T19:22:31.202Z,96.71
2019-01-30T19:28:47.465Z,96.21
2019-01-30T19:31:20.218Z,96.44
2019-01-30T19:33:52.734Z,96.06
2019-01-30T19:36:24.360Z,95.72
2019-01-30T19:38:56.173Z,95.21
2019-01-30T19:41:27.797Z,94.94
2019-01-30T19:43:59.770Z,95.54
2019-01-30T19:46:31.257Z,94.79
2019-01-30T19:49:03.050Z,94.10
2019-01-30T19:51:34.719Z,93.25
2019-01-30T19:54:06.701Z,92.58
2019-01-30T19:56:38.402Z,91.17
2019-01-30T19:59:17.279Z,90.50
2019-01-30T20:05:35.346Z,89.56
2019-01-30T20:08:07.463Z,89.30
2019-01-30T20:10:40.175Z,89.15
2019-01-30T20:17:03.058Z,88.02
2019-01-30T20:19:35.239Z,88.20
2019-01-30T20:26:10.424Z,88.83
2019-01-30T20:28:45.548Z,90.67
2019-01-30T20:31:17.465Z,90.68
2019-01-30T20:33:49.725Z,92.22
2019-01-30T20:36:22.185Z,92.50
2019-01-30T20:38:54.149Z,92.50
2019-01-30T20:41:25.936Z,93.25
2019-01-30T20:43:57.478Z,94.61
2019-01-30T20:46:30.544Z,94.37
2019-01-30T20:49:04.545Z,95.95
2019-01-30T20:51:36.228Z,97.12
2019-01-30T20:54:08.302Z,98.23
2019-01-30T20:56:40.021Z,98.82
2019-01-30T20:59:12.411Z,99.26
2019-01-30T21:01:44.479Z,99.51
2019-01-30T21:04:18.504Z,99.80
2019-01-30T21:06:49.963Z,100.00
2019-01-30T21:09:21.756Z,100.00
2019-01-30T21:11:54.470Z,100.00
2019-01-30T21:14:26.551Z,100.00
2019-01-30T21:16:58.511Z,100.00
2019-01-30T21:19:29.948Z,100.00
2019-01-30T21:22:01.334Z,100.00
2019-01-30T21:24:32.832Z,100.00
2019-01-30T21:27:06.638Z,100.00
2019-01-30T21:29:38.749Z,100.00
2019-01-30T21:32:11.625Z,100.00
2019-01-30T21:34:43.186Z,100.00
2019-01-30T21:37:14.579Z,100.00
2019-01-30T21:39:46.715Z,100.00
2019-01-30T21:42:18.341Z,100.00
2019-01-30T21:44:50.935Z,100.00
2019-01-30T21:47:22.020Z,100.00
2019-01-30T21:49:54.203Z,100.00
2019-01-30T21:52:25.503Z,100.00
2019-01-30T21:54:56.454Z,100.00
2019-01-30T21:57:27.161Z,100.00
2019-01-30T21:59:58.278Z,100.00
2019-01-30T22:02:29.346Z,100.00
2019-01-30T22:05:00.314Z,100.00
2019-01-30T22:07:31.299Z,100.00
2019-01-30T22:10:02.061Z,100.00
2019-01-30T22:12:32.590Z,100.00
2019-01-30T22:15:03.523Z,100.00
2019-01-30T22:17:34.323Z,100.00
2019-01-30T22:20:05.972Z,100.00
2019-01-30T22:22:36.995Z,100.00
2019-01-30T22:25:19.653Z,100.00
2019-01-30T22:27:41.016Z,100.00
2019-01-30T22:30:21.201Z,100.00
2019-01-30T22:32:52.348Z,100.00
2019-01-30T22:35:22.360Z,100.00
2019-01-30T22:37:52.352Z,100.00
2019-01-30T22:40:22.459Z,100.00
2019-01-30T22:42:52.888Z,100.00
2019-01-30T22:45:23.235Z,100.00
2019-01-30T22:47:54.138Z,100.00
2019-01-30T22:50:24.303Z,100.00
2019-01-30T22:52:54.591Z,100.00
2019-01-30T22:55:25.102Z,100.00
2019-01-30T22:57:55.257Z,100.00
2019-01-30T23:01:15.127Z,100.00
2019-01-30T23:04:16.522Z,100.00
2019-01-30T23:07:37.578Z,100.00
2019-01-30T23:11:05.632Z,100.00
2019-01-30T23:14:31.765Z,100.00
2019-01-30T23:17:59.475Z,100.00
2019-01-30T23:20:41.025Z,100.00
2019-01-30T23:23:43.648Z,100.00
2019-01-30T23:27:01.572Z,100.00
2019-01-30T23:30:32.172Z,100.00
2019-01-30T23:33:35.623Z,100.00
2019-01-30T23:36:46.115Z,100.00
2019-01-30T23:39:55.350Z,100.00
2019-01-30T23:43:10.111Z,100.00
2019-01-30T23:45:56.793Z,100.00
2019-01-30T23:49:07.602Z,100.00
2019-01-30T23:52:11.905Z,100.00
2019-01-30T23:55:08.572Z,100.00
2019-01-30T23:58:56.825Z,100.00
